Time;durP1;ratioP1;P1;durP2;ratioP2;P2;SDS_P1;SDS_P2;PMS_P1;PMS_P2;Temp;Humidity;BMP_temperature;BMP_pressure;BME280_temperature;BME280_humidity;BME280_pressure;Samples;Min_cycle;Max_cycle;Signal;HPM_P1;HPM_P2
2021/06/07 00:02:01;;;;;;;7.13;6.28;;;;;;;;;;5092542;28;20059;-76
2021/06/07 00:04:27;;;;;;;7.93;6.53;;;;;;;;;;5093348;28;20596;-76
2021/06/07 00:06:54;;;;;;;10.20;6.55;;;;;;;;;;5092851;28;20032;-76
2021/06/07 00:09:20;;;;;;;7.43;6.78;;;;;;;;;;5092162;28;20031;-76
2021/06/07 00:11:47;;;;;;;12.02;6.80;;;;;;;;;;5093155;28;20081;-75
2021/06/07 00:14:13;;;;;;;6.88;6.28;;;;;;;;;;5093094;28;20535;-75
2021/06/07 00:16:39;;;;;;;6.82;6.30;;;;;;;;;;5093779;28;20032;-76
2021/06/07 00:19:07;;;;;;;8.23;6.25;;;;;;;;;;5093350;28;20536;-76
2021/06/07 00:21:33;;;;;;;8.07;7.28;;;;;;;;;;5092598;28;20039;-76
2021/06/07 00:23:59;;;;;;;6.90;6.30;;;;;;;;;;5092277;28;20500;-76
2021/06/07 00:26:25;;;;;;;7.38;6.72;;;;;;;;;;5093092;28;20366;-76
2021/06/07 00:28:52;;;;;;;7.38;6.78;;;;;;;;;;5092415;28;20034;-76
2021/06/07 00:31:18;;;;;;;6.70;6.10;;;;;;;;;;5092780;28;20024;-76
2021/06/07 00:33:44;;;;;;;6.70;6.15;;;;;;;;;;5094548;28;20080;-76
2021/06/07 00:36:12;;;;;;;6.50;5.82;;;;;;;;;;5093924;28;20020;-75
2021/06/07 00:38:38;;;;;;;8.48;6.20;;;;;;;;;;5092777;28;20065;-76
2021/06/07 00:41:05;;;;;;;7.45;6.78;;;;;;;;;;5091644;28;20067;-75
2021/06/07 00:43:31;;;;;;;7.03;6.32;;;;;;;;;;5093311;28;20115;-76
2021/06/07 00:45:57;;;;;;;7.85;7.15;;;;;;;;;;5091089;28;20152;-76
2021/06/07 00:48:23;;;;;;;7.30;6.60;;;;;;;;;;5092288;28;20051;-76
2021/06/07 00:50:51;;;;;;;7.10;6.35;;;;;;;;;;5094006;28;20020;-76
2021/06/07 00:53:18;;;;;;;6.38;5.78;;;;;;;;;;5094724;28;20024;-77
2021/06/07 00:55:46;;;;;;;6.88;6.15;;;;;;;;;;5094443;28;20110;-76
2021/06/07 00:58:12;;;;;;;7.30;6.60;;;;;;;;;;5094443;28;20027;-76
2021/06/07 01:00:39;;;;;;;7.05;6.35;;;;;;;;;;5094303;28;20086;-76
2021/06/07 01:03:05;;;;;;;7.15;6.45;;;;;;;;;;5094635;28;20028;-76
2021/06/07 01:05:31;;;;;;;6.47;5.88;;;;;;;;;;5094366;28;20043;-76
2021/06/07 01:07:57;;;;;;;11.80;6.35;;;;;;;;;;5094282;28;20111;-76
2021/06/07 01:10:24;;;;;;;6.85;6.25;;;;;;;;;;5094347;28;20074;-76
2021/06/07 01:12:50;;;;;;;6.55;5.95;;;;;;;;;;5094636;28;20023;-76
2021/06/07 01:15:16;;;;;;;6.85;6.25;;;;;;;;;;5093770;28;20063;-76
2021/06/07 01:17:42;;;;;;;8.05;6.05;;;;;;;;;;5094114;28;20024;-76
2021/06/07 01:20:09;;;;;;;6.45;5.85;;;;;;;;;;5094038;28;20114;-76
2021/06/07 01:22:35;;;;;;;6.60;5.97;;;;;;;;;;5093916;28;20028;-76
2021/06/07 01:25:01;;;;;;;7.60;6.55;;;;;;;;;;5094227;28;20031;-76
2021/06/07 01:27:27;;;;;;;6.00;5.40;;;;;;;;;;5094137;28;20063;-76
2021/06/07 01:29:54;;;;;;;9.02;6.00;;;;;;;;;;5093901;28;20465;-76
2021/06/07 01:32:20;;;;;;;7.57;6.10;;;;;;;;;;5094125;28;20476;-76
2021/06/07 01:34:46;;;;;;;6.97;6.13;;;;;;;;;;5093631;28;20397;-76
2021/06/07 01:37:12;;;;;;;6.40;5.88;;;;;;;;;;5094095;28;20024;-76
2021/06/07 01:39:38;;;;;;;5.82;5.32;;;;;;;;;;5093900;28;20020;-76
2021/06/07 01:42:04;;;;;;;6.47;5.88;;;;;;;;;;5093838;28;20024;-76
2021/06/07 01:44:30;;;;;;;6.40;5.82;;;;;;;;;;5093306;28;20334;-76
2021/06/07 01:46:56;;;;;;;6.20;5.70;;;;;;;;;;5093717;28;20035;-76
2021/06/07 01:49:22;;;;;;;5.80;5.30;;;;;;;;;;5093703;28;20059;-76
2021/06/07 01:51:48;;;;;;;7.88;5.82;;;;;;;;;;5093630;28;20024;-76
2021/06/07 01:54:14;;;;;;;5.50;4.95;;;;;;;;;;5093408;28;20477;-76
2021/06/07 01:56:41;;;;;;;6.50;5.90;;;;;;;;;;5093452;28;20020;-76
2021/06/07 01:59:07;;;;;;;6.45;5.95;;;;;;;;;;5093647;28;20035;-76
2021/06/07 02:01:33;;;;;;;6.22;5.60;;;;;;;;;;5093654;28;20380;-76
2021/06/07 02:04:00;;;;;;;6.18;5.65;;;;;;;;;;5093445;28;20488;-76
2021/06/07 02:06:26;;;;;;;9.18;6.10;;;;;;;;;;5093228;28;20044;-77
2021/06/07 02:08:52;;;;;;;7.93;5.93;;;;;;;;;;5093631;28;20032;-76
2021/06/07 02:11:19;;;;;;;5.65;5.15;;;;;;;;;;5093639;28;20384;-76
2021/06/07 02:13:45;;;;;;;6.43;5.82;;;;;;;;;;5093367;28;20372;-76
2021/06/07 02:16:15;;;;;;;6.45;5.85;;;;;;;;;;5093196;28;20026;-76
2021/06/07 02:18:41;;;;;;;6.53;5.85;;;;;;;;;;5093373;28;20032;-76
2021/06/07 02:21:08;;;;;;;5.65;5.15;;;;;;;;;;5093444;28;20020;-76
2021/06/07 02:23:34;;;;;;;6.22;5.65;;;;;;;;;;5093377;28;20024;-76
2021/06/07 02:26:00;;;;;;;6.75;6.15;;;;;;;;;;5093235;28;20032;-76
2021/06/07 02:28:26;;;;;;;6.75;5.47;;;;;;;;;;5092807;28;20028;-75
2021/06/07 02:30:52;;;;;;;6.68;5.63;;;;;;;;;;5093230;28;20024;-76
2021/06/07 02:33:18;;;;;;;6.00;5.50;;;;;;;;;;5093459;28;20028;-76
2021/06/07 02:35:44;;;;;;;6.82;5.93;;;;;;;;;;5093322;28;20465;-76
2021/06/07 02:38:11;;;;;;;6.05;5.28;;;;;;;;;;5093230;28;20477;-76
2021/06/07 02:40:38;;;;;;;6.20;5.55;;;;;;;;;;5093043;28;20039;-76
2021/06/07 02:43:04;;;;;;;5.85;5.35;;;;;;;;;;5092883;28;20032;-76
2021/06/07 02:45:30;;;;;;;6.28;5.15;;;;;;;;;;5093482;28;20096;-76
2021/06/07 02:47:57;;;;;;;7.47;5.78;;;;;;;;;;5093218;28;20385;-76
2021/06/07 02:50:24;;;;;;;6.13;5.65;;;;;;;;;;5092839;28;20082;-76
2021/06/07 02:52:50;;;;;;;7.88;5.80;;;;;;;;;;5093017;28;20024;-75
2021/06/07 02:55:20;;;;;;;6.18;5.57;;;;;;;;;;5093171;28;20469;-76
2021/06/07 02:57:46;;;;;;;7.07;6.00;;;;;;;;;;5092738;28;20474;-76
2021/06/07 03:00:13;;;;;;;6.07;5.55;;;;;;;;;;5092781;28;20481;-76
2021/06/07 03:02:39;;;;;;;6.07;5.57;;;;;;;;;;5092921;28;20060;-76
2021/06/07 03:05:06;;;;;;;8.80;5.80;;;;;;;;;;5094278;28;20055;-76
2021/06/07 03:07:32;;;;;;;6.65;6.05;;;;;;;;;;5096953;28;20568;-76
2021/06/07 03:09:58;;;;;;;6.70;6.10;;;;;;;;;;5096396;28;20381;-76
2021/06/07 03:12:24;;;;;;;6.10;5.60;;;;;;;;;;5096124;28;20364;-76
2021/06/07 03:14:50;;;;;;;6.57;5.55;;;;;;;;;;5096388;28;20020;-76
2021/06/07 03:17:16;;;;;;;6.22;5.63;;;;;;;;;;5096832;28;20026;-77
2021/06/07 03:19:42;;;;;;;6.18;5.68;;;;;;;;;;5096616;28;20035;-76
2021/06/07 03:22:08;;;;;;;6.47;5.90;;;;;;;;;;5096447;28;20081;-77
2021/06/07 03:24:34;;;;;;;6.38;5.60;;;;;;;;;;5096045;28;20059;-76
2021/06/07 03:27:03;;;;;;;5.95;5.45;;;;;;;;;;5096191;28;20043;-76
2021/06/07 03:29:29;;;;;;;5.78;5.25;;;;;;;;;;5096343;28;20457;-76
2021/06/07 03:31:55;;;;;;;6.43;5.82;;;;;;;;;;5096102;28;20457;-76
2021/06/07 03:34:21;;;;;;;5.85;5.35;;;;;;;;;;5096155;28;20436;-76
2021/06/07 03:36:47;;;;;;;5.65;5.13;;;;;;;;;;5095837;28;20078;-77
2021/06/07 03:39:13;;;;;;;5.60;5.20;;;;;;;;;;5096115;28;20060;-76
2021/06/07 03:41:39;;;;;;;5.82;5.30;;;;;;;;;;5096136;28;20077;-77
2021/06/07 03:44:05;;;;;;;9.27;6.13;;;;;;;;;;5096007;28;20055;-77
2021/06/07 03:46:31;;;;;;;8.38;5.65;;;;;;;;;;5095432;28;20047;-76
2021/06/07 03:48:57;;;;;;;8.82;5.72;;;;;;;;;;5095897;28;20044;-76
2021/06/07 03:51:23;;;;;;;6.32;5.72;;;;;;;;;;5096010;28;20020;-76
2021/06/07 03:53:49;;;;;;;6.20;5.70;;;;;;;;;;5095733;28;20470;-76
2021/06/07 03:56:17;;;;;;;5.55;5.05;;;;;;;;;;5095355;28;20473;-77
2021/06/07 03:58:43;;;;;;;5.68;5.18;;;;;;;;;;5095537;28;20051;-78
2021/06/07 04:01:09;;;;;;;5.38;4.93;;;;;;;;;;5095911;28;20071;-77
2021/06/07 04:03:36;;;;;;;6.75;5.47;;;;;;;;;;5095685;28;20111;-77
2021/06/07 04:06:02;;;;;;;6.60;5.18;;;;;;;;;;5095577;28;20065;-76
2021/06/07 04:08:29;;;;;;;8.73;5.50;;;;;;;;;;5095005;28;20028;-76
2021/06/07 04:10:56;;;;;;;8.70;5.95;;;;;;;;;;5095842;28;20354;-77
2021/06/07 04:13:22;;;;;;;6.22;5.47;;;;;;;;;;5095241;28;20414;-78
2021/06/07 04:15:48;;;;;;;6.90;6.30;;;;;;;;;;5095339;28;20113;-77
2021/06/07 04:18:14;;;;;;;5.55;5.03;;;;;;;;;;5095465;28;20060;-77
2021/06/07 04:20:40;;;;;;;6.03;5.18;;;;;;;;;;5094963;28;20431;-77
2021/06/07 04:23:07;;;;;;;5.95;5.45;;;;;;;;;;5095398;28;20454;-76
2021/06/07 04:25:33;;;;;;;5.65;5.15;;;;;;;;;;5094993;28;20048;-77
2021/06/07 04:27:59;;;;;;;5.60;5.10;;;;;;;;;;5094796;28;20021;-77
2021/06/07 04:30:26;;;;;;;15.23;5.30;;;;;;;;;;5094807;28;20481;-77
2021/06/07 04:32:52;;;;;;;6.95;5.57;;;;;;;;;;5095397;28;20107;-77
2021/06/07 04:35:18;;;;;;;7.57;5.47;;;;;;;;;;5094958;28;20028;-77
2021/06/07 04:37:53;;;;;;;14.43;6.30;;;;;;;;;;5094726;28;20081;-77
2021/06/07 04:40:20;;;;;;;7.43;5.88;;;;;;;;;;5095099;28;20024;-76
2021/06/07 04:42:46;;;;;;;8.25;5.53;;;;;;;;;;5094534;28;20021;-77
2021/06/07 04:45:13;;;;;;;6.53;5.63;;;;;;;;;;5094599;28;20066;-77
2021/06/07 04:47:39;;;;;;;6.07;5.47;;;;;;;;;;5094874;28;20458;-77
2021/06/07 04:50:07;;;;;;;8.82;5.60;;;;;;;;;;5094267;28;20059;-77
2021/06/07 04:52:33;;;;;;;6.13;4.93;;;;;;;;;;5094336;28;20039;-76
2021/06/07 04:54:59;;;;;;;5.60;5.10;;;;;;;;;;5094750;28;20024;-77
2021/06/07 04:57:25;;;;;;;6.95;5.72;;;;;;;;;;5095007;28;20032;-77
2021/06/07 04:59:51;;;;;;;5.32;4.93;;;;;;;;;;5094521;28;20032;-76
2021/06/07 05:02:17;;;;;;;6.50;5.90;;;;;;;;;;5094488;28;20461;-77
2021/06/07 05:04:43;;;;;;;5.07;4.68;;;;;;;;;;5093947;28;20420;-77
2021/06/07 05:07:09;;;;;;;7.13;5.78;;;;;;;;;;5093989;28;20028;-77
2021/06/07 05:09:35;;;;;;;6.00;5.40;;;;;;;;;;5094401;28;20024;-77
2021/06/07 05:12:05;;;;;;;10.73;5.55;;;;;;;;;;5094334;28;20020;-77
2021/06/07 05:14:31;;;;;;;9.98;6.18;;;;;;;;;;5096657;28;20474;-78
2021/06/07 05:16:57;;;;;;;6.20;5.70;;;;;;;;;;5104025;28;20032;-80
2021/06/07 05:19:23;;;;;;;5.90;5.30;;;;;;;;;;5103248;28;20016;-77
2021/06/07 05:21:49;;;;;;;5.32;4.90;;;;;;;;;;5101762;28;20020;-77
2021/06/07 05:24:15;;;;;;;6.35;5.75;;;;;;;;;;5104383;28;20027;-80
2021/06/07 05:26:41;;;;;;;5.80;5.20;;;;;;;;;;5102818;28;20036;-79
2021/06/07 05:29:07;;;;;;;5.68;5.18;;;;;;;;;;5102208;28;20020;-79
2021/06/07 05:31:33;;;;;;;5.68;5.20;;;;;;;;;;5104430;28;20031;-79
2021/06/07 05:33:59;;;;;;;15.10;5.47;;;;;;;;;;5101450;28;20047;-80
2021/06/07 05:36:25;;;;;;;5.88;5.28;;;;;;;;;;5103813;28;20028;-80
2021/06/07 05:38:52;;;;;;;7.47;5.45;;;;;;;;;;5102170;28;20032;-79
2021/06/07 05:41:18;;;;;;;5.53;5.03;;;;;;;;;;5103590;28;20023;-79
2021/06/07 05:43:44;;;;;;;5.95;5.43;;;;;;;;;;5103486;28;20063;-77
2021/06/07 05:46:10;;;;;;;6.38;5.60;;;;;;;;;;5102027;28;20117;-82
2021/06/07 05:48:36;;;;;;;7.40;5.32;;;;;;;;;;5100610;28;20071;-80
2021/06/07 05:51:02;;;;;;;5.80;5.20;;;;;;;;;;5102336;28;20027;-81
2021/06/07 05:53:28;;;;;;;5.20;4.80;;;;;;;;;;5101450;28;20081;-80
2021/06/07 05:55:54;;;;;;;5.90;4.97;;;;;;;;;;5102246;28;20024;-79
2021/06/07 05:58:21;;;;;;;7.07;5.57;;;;;;;;;;5102821;28;20389;-77
2021/06/07 06:00:48;;;;;;;5.43;4.93;;;;;;;;;;5098088;28;20030;-78
2021/06/07 06:03:14;;;;;;;6.18;5.18;;;;;;;;;;5094334;28;20016;-78
2021/06/07 06:05:40;;;;;;;6.35;5.47;;;;;;;;;;5093996;28;20051;-78
2021/06/07 06:08:06;;;;;;;5.85;5.25;;;;;;;;;;5109312;28;20116;-76
2021/06/07 06:10:33;;;;;;;5.25;4.75;;;;;;;;;;5107648;28;20102;-78
2021/06/07 06:12:59;;;;;;;6.28;5.10;;;;;;;;;;5114101;28;20058;-75
2021/06/07 06:15:25;;;;;;;7.30;5.53;;;;;;;;;;5107179;28;20032;-76
2021/06/07 06:17:51;;;;;;;5.20;4.80;;;;;;;;;;5093907;28;20032;-75
2021/06/07 06:20:17;;;;;;;6.45;4.70;;;;;;;;;;5094328;28;20039;-76
2021/06/07 06:22:44;;;;;;;6.28;5.18;;;;;;;;;;5092776;28;20038;-78
2021/06/07 06:25:11;;;;;;;6.20;5.60;;;;;;;;;;5092919;28;20028;-77
2021/06/07 06:27:37;;;;;;;6.35;5.05;;;;;;;;;;5091881;28;20134;-77
2021/06/07 06:30:05;;;;;;;8.45;5.95;;;;;;;;;;5092500;28;20052;-77
2021/06/07 06:32:31;;;;;;;5.78;5.28;;;;;;;;;;5092385;28;20534;-78
2021/06/07 06:34:57;;;;;;;6.68;5.28;;;;;;;;;;5092611;28;20024;-75
2021/06/07 06:37:23;;;;;;;5.75;5.22;;;;;;;;;;5093079;28;20158;-77
2021/06/07 06:39:49;;;;;;;7.28;5.60;;;;;;;;;;5093500;28;20461;-77
2021/06/07 06:42:15;;;;;;;14.50;5.65;;;;;;;;;;5097698;28;20382;-79
2021/06/07 06:44:41;;;;;;;7.97;4.78;;;;;;;;;;5099000;28;20024;-77
2021/06/07 06:47:07;;;;;;;8.48;5.70;;;;;;;;;;5097196;28;20035;-79
2021/06/07 06:49:33;;;;;;;5.55;5.03;;;;;;;;;;5096184;28;20052;-78
2021/06/07 06:52:00;;;;;;;6.78;6.18;;;;;;;;;;5095705;28;20535;-80
2021/06/07 06:54:26;;;;;;;5.95;5.45;;;;;;;;;;5096467;28;20385;-80
2021/06/07 06:56:52;;;;;;;7.93;5.65;;;;;;;;;;5096401;28;20073;-79
2021/06/07 06:59:18;;;;;;;7.93;5.53;;;;;;;;;;5096277;28;20023;-83
2021/06/07 07:01:44;;;;;;;8.10;5.90;;;;;;;;;;5096931;28;20016;-80
2021/06/07 07:04:10;;;;;;;6.00;5.40;;;;;;;;;;5096160;28;20028;-82
2021/06/07 07:06:37;;;;;;;8.13;4.95;;;;;;;;;;5096653;28;20496;-78
2021/06/07 07:09:04;;;;;;;10.00;4.95;;;;;;;;;;5100125;28;20533;-82
2021/06/07 07:11:30;;;;;;;5.35;4.90;;;;;;;;;;5097081;28;20021;-80
2021/06/07 07:13:56;;;;;;;6.80;4.60;;;;;;;;;;5097388;28;20426;-79
2021/06/07 07:16:22;;;;;;;14.32;5.88;;;;;;;;;;5096351;28;20028;-77
2021/06/07 07:18:48;;;;;;;5.28;4.78;;;;;;;;;;5096498;28;20028;-82
2021/06/07 07:21:14;;;;;;;7.20;4.95;;;;;;;;;;5093414;28;20377;-80
2021/06/07 07:23:40;;;;;;;9.70;4.93;;;;;;;;;;5096349;28;20028;-79
2021/06/07 07:26:06;;;;;;;28.08;5.50;;;;;;;;;;5099739;28;20040;-82
2021/06/07 07:28:32;;;;;;;8.98;4.97;;;;;;;;;;5097469;28;20444;-81
2021/06/07 07:30:59;;;;;;;10.45;5.28;;;;;;;;;;5098069;28;20027;-85
2021/06/07 07:33:25;;;;;;;11.43;5.68;;;;;;;;;;5097532;28;20024;-82
2021/06/07 07:35:51;;;;;;;13.77;5.05;;;;;;;;;;5097678;28;20031;-80
2021/06/07 07:38:17;;;;;;;8.30;5.28;;;;;;;;;;5096504;28;20161;-80
2021/06/07 07:40:44;;;;;;;5.25;4.75;;;;;;;;;;5096771;28;20036;-83
2021/06/07 07:43:10;;;;;;;8.38;5.47;;;;;;;;;;5098491;28;20020;-82
2021/06/07 07:45:36;;;;;;;7.47;5.40;;;;;;;;;;5098144;28;20063;-81
2021/06/07 07:48:03;;;;;;;13.38;4.88;;;;;;;;;;5097015;28;20481;-78
2021/06/07 07:50:29;;;;;;;11.10;5.70;;;;;;;;;;5093912;28;20044;-77
2021/06/07 07:52:56;;;;;;;10.65;5.25;;;;;;;;;;5095917;28;20023;-80
2021/06/07 07:55:24;;;;;;;9.40;5.38;;;;;;;;;;5096156;28;20083;-79
2021/06/07 07:57:51;;;;;;;8.77;5.00;;;;;;;;;;5096212;28;20028;-81
2021/06/07 08:00:17;;;;;;;8.07;4.75;;;;;;;;;;5096876;28;20056;-77
2021/06/07 08:02:43;;;;;;;7.18;5.15;;;;;;;;;;5095988;28;20024;-79
2021/06/07 08:05:10;;;;;;;14.38;6.05;;;;;;;;;;5096758;28;20118;-82
2021/06/07 08:07:36;;;;;;;11.40;5.88;;;;;;;;;;5096159;28;20457;-81
2021/06/07 08:10:02;;;;;;;8.73;4.80;;;;;;;;;;5096565;28;20130;-79
2021/06/07 08:12:29;;;;;;;9.55;5.10;;;;;;;;;;5095401;28;20512;-78
2021/06/07 08:14:55;;;;;;;12.18;5.72;;;;;;;;;;5095075;28;20092;-80
2021/06/07 08:17:21;;;;;;;13.73;5.88;;;;;;;;;;5094908;28;20020;-77
2021/06/07 08:19:47;;;;;;;22.13;5.20;;;;;;;;;;5095975;28;20105;-76
2021/06/07 08:22:13;;;;;;;8.80;5.95;;;;;;;;;;5095241;28;20474;-75
2021/06/07 08:24:39;;;;;;;12.85;4.70;;;;;;;;;;5097599;28;20065;-80
2021/06/07 08:27:05;;;;;;;12.63;6.43;;;;;;;;;;5097117;28;20024;-82
2021/06/07 08:29:32;;;;;;;6.40;5.10;;;;;;;;;;5097899;28;20031;-84
2021/06/07 08:31:58;;;;;;;5.72;5.15;;;;;;;;;;5096201;28;20020;-78
2021/06/07 08:34:24;;;;;;;8.65;5.15;;;;;;;;;;5096189;28;20084;-75
2021/06/07 08:36:50;;;;;;;12.52;5.50;;;;;;;;;;5096762;28;20123;-76
2021/06/07 08:39:16;;;;;;;6.55;5.20;;;;;;;;;;5096139;28;20026;-82
2021/06/07 08:41:42;;;;;;;6.90;4.72;;;;;;;;;;5095661;28;20028;-78
2021/06/07 08:44:08;;;;;;;5.45;4.95;;;;;;;;;;5095608;28;20457;-78
2021/06/07 08:46:34;;;;;;;11.77;5.20;;;;;;;;;;5094831;28;20028;-76
2021/06/07 08:49:00;;;;;;;7.05;5.45;;;;;;;;;;5094987;28;20120;-80
2021/06/07 08:51:27;;;;;;;6.03;4.85;;;;;;;;;;5095360;28;20023;-84
2021/06/07 08:53:54;;;;;;;6.18;4.75;;;;;;;;;;5095850;28;20554;-81
2021/06/07 08:56:20;;;;;;;12.20;4.78;;;;;;;;;;5094688;28;20024;-83
2021/06/07 08:58:47;;;;;;;5.13;4.72;;;;;;;;;;5095193;28;20441;-85
2021/06/07 09:01:13;;;;;;;5.03;4.63;;;;;;;;;;5094557;28;20016;-78
2021/06/07 09:03:39;;;;;;;4.63;4.22;;;;;;;;;;5094417;28;20683;-84
2021/06/07 09:06:05;;;;;;;4.88;4.07;;;;;;;;;;5095136;28;20043;-79
2021/06/07 09:08:34;;;;;;;5.97;5.05;;;;;;;;;;5095028;28;20038;-78
2021/06/07 09:11:09;;;;;;;5.82;4.60;;;;;;;;;;5093797;28;20020;-79
2021/06/07 09:13:35;;;;;;;6.07;5.47;;;;;;;;;;5094330;28;20115;-80
2021/06/07 09:16:01;;;;;;;6.05;5.07;;;;;;;;;;5093845;28;20031;-79
2021/06/07 09:18:29;;;;;;;9.00;4.90;;;;;;;;;;5093664;28;20461;-82
2021/06/07 09:21:05;;;;;;;5.47;4.50;;;;;;;;;;5097180;28;20046;-79
2021/06/07 09:23:51;;;;;;;6.28;4.65;;;;;;;;;;5096360;28;20110;-79
2021/06/07 09:26:25;;;;;;;10.50;5.38;;;;;;;;;;5080166;28;20028;-78
2021/06/07 09:28:54;;;;;;;5.80;5.15;;;;;;;;;;5096546;28;20031;-83
2021/06/07 09:31:25;;;;;;;5.63;5.13;;;;;;;;;;5095223;28;20117;-81
2021/06/07 09:33:51;;;;;;;5.88;5.13;;;;;;;;;;5095991;28;20055;-77
2021/06/07 09:36:27;;;;;;;5.25;4.72;;;;;;;;;;5095666;28;20039;-82
2021/06/07 09:38:57;;;;;;;6.07;4.38;;;;;;;;;;5094881;28;20024;-79
2021/06/07 09:41:23;;;;;;;5.63;4.75;;;;;;;;;;5094815;28;20032;-78
2021/06/07 09:43:50;;;;;;;12.07;4.90;;;;;;;;;;5094900;28;20081;-80
2021/06/07 09:46:17;;;;;;;10.02;5.28;;;;;;;;;;5094888;28;20384;-76
2021/06/07 09:48:43;;;;;;;5.20;4.70;;;;;;;;;;5095437;28;20464;-80
2021/06/07 09:51:09;;;;;;;14.05;5.53;;;;;;;;;;5094956;28;20082;-83
2021/06/07 09:53:52;;;;;;;5.60;4.85;;;;;;;;;;5097035;28;20032;-82
2021/06/07 09:56:19;;;;;;;6.80;5.20;;;;;;;;;;5096335;28;20028;-82
2021/06/07 09:58:46;;;;;;;5.70;5.13;;;;;;;;;;5094808;28;20028;-80
2021/06/07 10:01:14;;;;;;;9.45;4.57;;;;;;;;;;5094778;28;20051;-81
2021/06/07 10:03:43;;;;;;;7.22;5.35;;;;;;;;;;5094191;28;20053;-83
2021/06/07 10:06:25;;;;;;;6.30;5.15;;;;;;;;;;5093812;28;20024;-79
2021/06/07 10:08:57;;;;;;;9.52;5.25;;;;;;;;;;5100879;28;20462;-82
2021/06/07 10:11:25;;;;;;;14.50;5.50;;;;;;;;;;5101407;28;20028;-80
2021/06/07 10:13:51;;;;;;;11.57;5.50;;;;;;;;;;5105227;28;20452;-80
2021/06/07 10:16:17;;;;;;;7.45;5.57;;;;;;;;;;5108366;28;20488;-82
2021/06/07 10:18:43;;;;;;;5.60;5.10;;;;;;;;;;5104511;28;20016;-79
2021/06/07 10:21:11;;;;;;;7.85;5.07;;;;;;;;;;5106492;28;20039;-82
2021/06/07 10:23:37;;;;;;;9.32;5.70;;;;;;;;;;5106942;28;20107;-81
2021/06/07 10:26:04;;;;;;;6.07;5.47;;;;;;;;;;5107130;28;20043;-83
2021/06/07 10:28:32;;;;;;;6.47;5.88;;;;;;;;;;5108399;28;20103;-84
2021/06/07 10:30:58;;;;;;;6.88;5.72;;;;;;;;;;5104956;28;20496;-80
2021/06/07 10:33:29;;;;;;;14.40;5.43;;;;;;;;;;5096600;28;20429;-79
2021/06/07 10:35:55;;;;;;;5.93;5.38;;;;;;;;;;5096850;28;20081;-80
2021/06/07 10:38:29;;;;;;;6.95;5.10;;;;;;;;;;5096588;28;20346;-82
2021/06/07 10:41:15;;;;;;;5.68;5.10;;;;;;;;;;5097709;28;20048;-81
2021/06/07 10:43:42;;;;;;;6.63;5.28;;;;;;;;;;5081784;28;20088;-80
2021/06/07 10:46:28;;;;;;;5.25;4.75;;;;;;;;;;5096874;28;20040;-81
2021/06/07 10:48:54;;;;;;;21.15;6.00;;;;;;;;;;5084562;28;20052;-84
2021/06/07 10:51:21;;;;;;;13.38;5.47;;;;;;;;;;5107585;28;20020;-83
2021/06/07 10:53:50;;;;;;;7.40;6.00;;;;;;;;;;5105883;28;20109;-83
2021/06/07 10:56:16;;;;;;;6.05;5.18;;;;;;;;;;5106888;28;20016;-83
2021/06/07 10:58:50;;;;;;;14.80;4.97;;;;;;;;;;5107219;28;20039;-83
2021/06/07 11:01:16;;;;;;;5.80;5.13;;;;;;;;;;5105904;28;20470;-80
2021/06/07 11:03:52;;;;;;;7.60;4.95;;;;;;;;;;5105956;28;20034;-79
2021/06/07 11:06:18;;;;;;;7.57;5.55;;;;;;;;;;5105218;28;20027;-83
2021/06/07 11:08:46;;;;;;;13.23;6.55;;;;;;;;;;5105871;28;20388;-80
2021/06/07 11:11:14;;;;;;;9.18;5.05;;;;;;;;;;5104958;28;20085;-85
2021/06/07 11:13:59;;;;;;;7.97;4.80;;;;;;;;;;5104868;28;20464;-83
2021/06/07 11:16:30;;;;;;;5.53;5.10;;;;;;;;;;5106657;28;20024;-82
2021/06/07 11:18:57;;;;;;;6.57;4.72;;;;;;;;;;5105691;28;20099;-84
2021/06/07 11:21:27;;;;;;;5.45;4.50;;;;;;;;;;5103142;28;20031;-88
2021/06/07 11:23:53;;;;;;;7.35;4.90;;;;;;;;;;5098314;28;20028;-82
2021/06/07 11:26:20;;;;;;;5.35;4.70;;;;;;;;;;5096769;28;20146;-86
2021/06/07 11:28:47;;;;;;;7.32;4.82;;;;;;;;;;5097929;28;20023;-86
2021/06/07 11:31:33;;;;;;;5.00;4.35;;;;;;;;;;5098355;28;20023;-85
2021/06/07 11:34:01;;;;;;;5.85;4.85;;;;;;;;;;5089572;28;20374;-85
2021/06/07 11:36:47;;;;;;;6.18;4.60;;;;;;;;;;5105749;28;20053;-84
2021/06/07 11:39:14;;;;;;;9.38;5.32;;;;;;;;;;5092941;28;20413;-86
2021/06/07 11:41:41;;;;;;;6.85;4.75;;;;;;;;;;5106757;28;20020;-86
2021/06/07 11:44:07;;;;;;;7.22;4.53;;;;;;;;;;5105844;28;20110;-85
2021/06/07 11:46:53;;;;;;;6.40;4.90;;;;;;;;;;5107689;28;20032;-85
2021/06/07 11:49:19;;;;;;;4.47;4.10;;;;;;;;;;5082871;28;20127;-85
2021/06/07 11:51:46;;;;;;;7.70;4.63;;;;;;;;;;5086627;28;20067;-84
2021/06/07 11:54:32;;;;;;;8.77;5.20;;;;;;;;;;5086922;28;20424;-86
2021/06/07 11:56:59;;;;;;;5.88;4.20;;;;;;;;;;5078108;28;20074;-86
2021/06/07 11:59:29;;;;;;;4.55;4.15;;;;;;;;;;5084628;28;20023;-82
2021/06/07 12:01:55;;;;;;;5.65;4.30;;;;;;;;;;5084388;28;20020;-79
2021/06/07 12:04:29;;;;;;;9.07;4.35;;;;;;;;;;5084144;28;20100;-82
2021/06/07 12:06:59;;;;;;;7.78;4.50;;;;;;;;;;5083251;28;20127;-77
2021/06/07 12:09:25;;;;;;;3.90;3.50;;;;;;;;;;5083190;28;20518;-80
2021/06/07 12:11:52;;;;;;;7.00;4.38;;;;;;;;;;5084220;28;20023;-78
2021/06/07 12:14:26;;;;;;;5.07;4.20;;;;;;;;;;5083320;28;20056;-81
2021/06/07 12:16:52;;;;;;;5.18;3.65;;;;;;;;;;5084415;28;20024;-82
2021/06/07 12:19:20;;;;;;;3.78;3.47;;;;;;;;;;5084667;28;20020;-79
2021/06/07 12:21:46;;;;;;;6.32;4.60;;;;;;;;;;5084494;28;20067;-74
2021/06/07 12:24:14;;;;;;;14.85;3.72;;;;;;;;;;5082170;28;20102;-74
2021/06/07 12:29:31;;;;;;;5.28;3.70;;;;;;;;;;5076035;28;20111;-81
2021/06/07 12:32:17;;;;;;;3.47;3.17;;;;;;;;;;5079233;28;20020;-77
2021/06/07 12:35:04;;;;;;;4.28;3.92;;;;;;;;;;5076559;28;20024;-83
2021/06/07 12:37:50;;;;;;;3.72;3.40;;;;;;;;;;5078174;28;20012;-84
2021/06/07 12:40:37;;;;;;;7.70;4.07;;;;;;;;;;5074506;28;20027;-79
2021/06/07 12:43:16;;;;;;;3.75;3.45;;;;;;;;;;5072814;28;20032;-78
2021/06/07 12:46:02;;;;;;;7.18;3.85;;;;;;;;;;5071167;28;20123;-79
2021/06/07 12:48:29;;;;;;;3.90;3.60;;;;;;;;;;5073061;28;20048;-79
2021/06/07 12:51:11;;;;;;;9.02;3.60;;;;;;;;;;5094946;28;20031;-80
2021/06/07 12:53:39;;;;;;;3.70;3.28;;;;;;;;;;5093631;28;20078;-78
2021/06/07 12:56:13;;;;;;;5.55;3.42;;;;;;;;;;5094555;28;20385;-79
2021/06/07 12:58:45;;;;;;;3.65;3.35;;;;;;;;;;5093761;28;20027;-80
2021/06/07 13:01:13;;;;;;;7.07;3.30;;;;;;;;;;5094243;28;20024;-78
2021/06/07 13:03:39;;;;;;;5.65;3.60;;;;;;;;;;5093740;28;20024;-72
2021/06/07 13:06:20;;;;;;;7.57;3.80;;;;;;;;;;5093377;28;20024;-76
2021/06/07 13:08:55;;;;;;;3.28;3.05;;;;;;;;;;5093636;28;20048;-74
2021/06/07 13:11:25;;;;;;;4.45;4.05;;;;;;;;;;5093718;28;20020;-73
2021/06/07 13:13:52;;;;;;;11.98;3.78;;;;;;;;;;5083774;28;20118;-75
2021/06/07 13:16:19;;;;;;;6.15;4.35;;;;;;;;;;5072937;28;20478;-75
2021/06/07 13:19:03;;;;;;;4.07;3.75;;;;;;;;;;5073097;28;20507;-72
2021/06/07 13:21:31;;;;;;;4.43;4.03;;;;;;;;;;5073290;28;20021;-74
2021/06/07 13:23:57;;;;;;;3.90;3.60;;;;;;;;;;5070799;28;20086;-74
2021/06/07 13:26:25;;;;;;;7.15;4.28;;;;;;;;;;5072808;28;20111;-71
2021/06/07 13:29:11;;;;;;;4.82;4.07;;;;;;;;;;5073255;28;20108;-70
2021/06/07 13:31:45;;;;;;;4.25;3.85;;;;;;;;;;5072175;28;20021;-70
2021/06/07 13:34:13;;;;;;;4.03;3.63;;;;;;;;;;5072047;28;20036;-70
2021/06/07 13:36:39;;;;;;;5.38;4.55;;;;;;;;;;5072562;28;20024;-71
2021/06/07 13:39:05;;;;;;;5.32;4.45;;;;;;;;;;5073433;28;20488;-72
2021/06/07 13:41:31;;;;;;;4.55;4.15;;;;;;;;;;5072648;28;20029;-71
2021/06/07 13:43:59;;;;;;;4.38;4.03;;;;;;;;;;5072666;28;20025;-72
2021/06/07 13:46:25;;;;;;;4.05;3.72;;;;;;;;;;5073005;28;20497;-72
2021/06/07 13:48:51;;;;;;;5.15;3.65;;;;;;;;;;5077348;28;20101;-73
2021/06/07 13:51:29;;;;;;;6.65;4.35;;;;;;;;;;5093121;28;20024;-72
2021/06/07 13:54:05;;;;;;;4.45;3.60;;;;;;;;;;5095156;28;20028;-72
2021/06/07 13:56:31;;;;;;;9.15;4.18;;;;;;;;;;5113553;28;20059;-73
2021/06/07 13:58:57;;;;;;;5.75;4.03;;;;;;;;;;5114384;28;20027;-76
2021/06/07 14:01:24;;;;;;;5.20;4.15;;;;;;;;;;5113218;28;20058;-77
2021/06/07 14:03:54;;;;;;;4.18;3.85;;;;;;;;;;5106574;28;20035;-76
2021/06/07 14:06:21;;;;;;;8.03;3.77;;;;;;;;;;5094414;28;20112;-76
2021/06/07 14:08:55;;;;;;;4.28;3.88;;;;;;;;;;5094288;28;20349;-74
2021/06/07 14:11:23;;;;;;;4.00;3.70;;;;;;;;;;5093363;28;20020;-73
2021/06/07 14:13:50;;;;;;;3.80;3.50;;;;;;;;;;5092425;28;20466;-76
2021/06/07 14:16:16;;;;;;;8.02;3.50;;;;;;;;;;5093756;28;20067;-75
2021/06/07 14:18:42;;;;;;;6.28;4.03;;;;;;;;;;5093095;28;20077;-74
2021/06/07 14:21:12;;;;;;;5.22;3.20;;;;;;;;;;5093605;28;20355;-77
2021/06/07 14:26:24;;;;;;;10.95;4.15;;;;;;;;;;5077450;28;20057;-73
2021/06/07 14:28:51;;;;;;;4.70;3.50;;;;;;;;;;5093488;28;20035;-73
2021/06/07 14:31:17;;;;;;;4.88;3.75;;;;;;;;;;5093303;28;20070;-77
2021/06/07 14:33:43;;;;;;;4.57;3.90;;;;;;;;;;5092728;28;20051;-73
2021/06/07 14:36:10;;;;;;;4.60;3.75;;;;;;;;;;5093777;28;20034;-74
2021/06/07 14:38:37;;;;;;;21.92;4.40;;;;;;;;;;5093995;28;20024;-77
2021/06/07 14:41:05;;;;;;;3.90;3.60;;;;;;;;;;5092364;28;20031;-77
2021/06/07 14:43:32;;;;;;;6.13;3.78;;;;;;;;;;5094210;28;20028;-78
2021/06/07 14:45:58;;;;;;;7.78;3.63;;;;;;;;;;5093865;28;20029;-73
2021/06/07 14:48:24;;;;;;;4.85;4.28;;;;;;;;;;5093400;28;20059;-75
2021/06/07 14:50:51;;;;;;;8.75;3.95;;;;;;;;;;5093033;28;20028;-73